Time;durP1;ratioP1;P1;durP2;ratioP2;P2;SDS_P1;SDS_P2;PMS_P1;PMS_P2;Temp;Humidity;BMP_temperature;BMP_pressure;BME280_temperature;BME280_humidity;BME280_pressure;Samples;Min_cycle;Max_cycle;Signal;HPM_P1;HPM_P2
2022/05/08 00:02:19;;;;;;;11.68;7.50;;;;;;;15.00;36.19;99993.88;5054969;28;20045;-60
2022/05/08 00:04:51;;;;;;;14.30;7.60;;;;;;;15.04;36.19;99991.19;5054425;28;20834;-60
2022/05/08 00:07:20;;;;;;;12.63;7.70;;;;;;;14.99;36.60;99986.97;5054986;28;20025;-60
2022/05/08 00:09:47;;;;;;;12.90;8.07;;;;;;;15.02;36.13;99978.16;5054714;28;20045;-60
2022/05/08 00:12:14;;;;;;;19.08;8.25;;;;;;;14.95;35.78;99982.75;5054838;28;20463;-60
2022/05/08 00:14:41;;;;;;;13.00;7.80;;;;;;;14.91;35.84;99978.53;5054525;28;20052;-60
2022/05/08 00:17:06;;;;;;;16.77;8.57;;;;;;;14.83;36.58;99989.22;5069752;28;20017;-60
2022/05/08 00:19:32;;;;;;;10.57;7.82;;;;;;;14.86;35.85;99977.00;5054457;28;20032;-60
2022/05/08 00:21:58;;;;;;;12.57;7.88;;;;;;;14.94;36.93;99977.59;5054731;28;20114;-60
2022/05/08 00:24:23;;;;;;;11.88;7.88;;;;;;;14.94;35.79;99975.84;5054469;28;20154;-60
2022/05/08 00:26:50;;;;;;;16.33;7.78;;;;;;;14.53;36.12;99936.34;5053476;28;20048;-60
2022/05/08 00:29:16;;;;;;;11.65;7.30;;;;;;;14.88;36.20;99975.19;5046826;28;20116;-59
2022/05/08 00:31:42;;;;;;;15.32;8.02;;;;;;;14.87;36.93;99976.09;5054170;28;20116;-59
2022/05/08 00:34:08;;;;;;;18.42;7.72;;;;;;;14.78;36.35;99966.84;5054337;28;20037;-59
2022/05/08 00:36:34;;;;;;;17.92;8.32;;;;;;;14.83;36.87;99981.41;5054093;28;20071;-59
2022/05/08 00:38:59;;;;;;;13.20;7.55;;;;;;;14.81;36.19;99975.41;5053804;28;20086;-59
2022/05/08 00:41:25;;;;;;;12.60;7.60;;;;;;;14.90;36.68;99976.84;5054005;28;20032;-60
2022/05/08 00:43:51;;;;;;;13.93;7.90;;;;;;;14.90;36.13;99976.00;5054068;28;20028;-60
2022/05/08 00:46:16;;;;;;;16.20;8.55;;;;;;;14.84;36.76;99971.84;5069383;28;20028;-60
2022/05/08 00:48:42;;;;;;;11.88;7.63;;;;;;;14.92;36.99;99967.22;5053914;28;20025;-60
2022/05/08 00:51:10;;;;;;;18.42;8.63;;;;;;;14.83;36.45;99978.78;5054033;28;20170;-61
2022/05/08 00:53:58;;;;;;;15.48;8.23;;;;;;;14.46;37.07;99914.00;5053706;28;20028;-60
2022/05/08 00:56:23;;;;;;;19.92;9.70;;;;;;;14.77;36.61;99971.19;5053639;28;20402;-60
2022/05/08 00:58:54;;;;;;;12.50;8.15;;;;;;;14.75;36.51;99962.59;5053845;28;20021;-60
2022/05/08 01:01:20;;;;;;;18.70;8.82;;;;;;;14.61;37.52;99946.53;5053729;28;20025;-60
2022/05/08 01:03:46;;;;;;;16.80;9.00;;;;;;;14.75;36.99;99959.97;5053923;28;20033;-60
2022/05/08 01:06:14;;;;;;;14.00;8.07;;;;;;;14.65;37.47;99954.22;5053491;28;20044;-60
2022/05/08 01:08:43;;;;;;;14.38;8.63;;;;;;;14.70;37.06;99948.00;5053848;28;20067;-60
2022/05/08 01:11:10;;;;;;;17.23;8.68;;;;;;;14.72;38.19;99951.41;5053823;28;20071;-60
2022/05/08 01:13:36;;;;;;;13.65;8.60;;;;;;;14.63;37.39;99942.97;5053285;28;20036;-60
2022/05/08 01:16:08;;;;;;;15.13;8.60;;;;;;;14.51;37.88;99917.31;5053625;28;20051;-60
2022/05/08 01:18:33;;;;;;;14.43;8.32;;;;;;;14.53;38.07;99941.56;5053500;28;20036;-60
2022/05/08 01:20:59;;;;;;;15.88;8.90;;;;;;;14.53;38.86;99938.94;5053100;28;20029;-61
2022/05/08 01:23:24;;;;;;;12.32;8.88;;;;;;;14.52;38.11;99934.63;5053422;28;20441;-60
2022/05/08 01:25:55;;;;;;;15.07;8.25;;;;;;;14.18;38.15;99882.81;5053346;28;20382;-60
2022/05/08 01:28:22;;;;;;;14.05;8.25;;;;;;;14.35;38.43;99914.38;5044445;28;20497;-60
2022/05/08 01:30:53;;;;;;;13.32;8.10;;;;;;;14.11;38.21;99867.41;5053120;28;20048;-60
2022/05/08 01:33:20;;;;;;;15.95;8.23;;;;;;;14.61;37.81;99925.69;5053505;28;20445;-59
2022/05/08 01:35:46;;;;;;;15.65;7.95;;;;;;;14.63;38.41;99927.34;5043732;28;20048;-60
2022/05/08 01:38:14;;;;;;;13.95;8.38;;;;;;;14.60;38.48;99921.38;5044896;28;20116;-59
2022/05/08 01:40:40;;;;;;;14.52;7.90;;;;;;;14.64;38.27;99923.00;5052555;28;20029;-59
2022/05/08 01:43:06;;;;;;;11.57;7.70;;;;;;;14.63;37.59;99919.53;5052544;28;20033;-59
2022/05/08 01:45:33;;;;;;;12.32;7.18;;;;;;;14.67;38.65;99913.28;5052904;28;20441;-59
2022/05/08 01:50:42;;;;;;;11.00;7.22;;;;;;;14.80;38.20;99920.69;5052922;28;20102;-60
2022/05/08 01:53:08;;;;;;;12.18;7.75;;;;;;;14.67;37.70;99913.28;5052763;28;20490;-59
2022/05/08 01:55:34;;;;;;;12.40;7.07;;;;;;;14.70;38.02;99912.34;5052433;28;20024;-60
2022/05/08 01:58:01;;;;;;;10.07;7.05;;;;;;;14.52;38.11;99907.72;5052759;28;20078;-60
2022/05/08 02:00:28;;;;;;;13.60;7.03;;;;;;;14.45;38.45;99902.75;5052914;28;20052;-59
2022/05/08 02:02:59;;;;;;;13.73;6.88;;;;;;;14.50;38.40;99908.63;5052914;28;20033;-59
2022/05/08 02:05:25;;;;;;;15.20;7.57;;;;;;;14.65;38.50;99907.31;5052402;28;20070;-60
2022/05/08 02:07:51;;;;;;;11.68;7.30;;;;;;;14.56;38.34;99894.53;5052567;28;20057;-59
2022/05/08 02:10:18;;;;;;;12.90;7.32;;;;;;;14.41;38.67;99867.25;5052357;28;20033;-59
2022/05/08 02:12:44;;;;;;;10.98;6.90;;;;;;;14.63;38.07;99903.88;5052774;28;20032;-59
2022/05/08 02:15:12;;;;;;;10.40;7.20;;;;;;;14.56;37.81;99907.56;5052012;28;20064;-59
2022/05/08 02:17:38;;;;;;;12.65;6.68;;;;;;;14.67;37.90;99920.28;5052468;28;20036;-59
2022/05/08 02:20:06;;;;;;;14.80;7.45;;;;;;;14.19;38.92;99851.50;5052226;28;20048;-59
2022/05/08 02:22:36;;;;;;;10.73;6.60;;;;;;;14.66;38.12;99911.63;5052494;28;20028;-59
2022/05/08 02:25:04;;;;;;;16.45;6.65;;;;;;;14.71;38.74;99914.06;5052213;28;20504;-60
2022/05/08 02:27:39;;;;;;;12.15;7.40;;;;;;;14.62;38.43;99911.75;5052034;28;20025;-60
2022/05/08 02:30:08;;;;;;;12.05;6.60;;;;;;;14.73;38.68;99934.84;5052093;28;20402;-59
2022/05/08 02:32:33;;;;;;;11.05;6.50;;;;;;;14.78;37.36;99907.72;5051974;28;20076;-60
2022/05/08 02:34:59;;;;;;;9.43;6.45;;;;;;;14.79;38.28;99916.38;5051967;28;20053;-59
2022/05/08 02:37:26;;;;;;;8.55;5.85;;;;;;;14.82;38.20;99909.31;5050787;28;20390;-60
2022/05/08 02:39:52;;;;;;;9.15;5.97;;;;;;;14.67;37.69;99912.47;5051819;28;20036;-60
2022/05/08 02:42:18;;;;;;;9.95;5.75;;;;;;;14.76;38.52;99909.50;5052094;28;20104;-60
2022/05/08 02:44:43;;;;;;;13.05;6.25;;;;;;;14.63;38.11;99901.28;5052299;28;20029;-60
2022/05/08 02:47:09;;;;;;;9.90;6.38;;;;;;;14.56;37.93;99904.97;5051802;28;20025;-60
2022/05/08 02:49:35;;;;;;;10.93;6.50;;;;;;;14.61;38.63;99904.81;5051932;28;20021;-60
2022/05/08 02:52:00;;;;;;;14.15;6.72;;;;;;;14.70;38.30;99908.91;5050726;28;20104;-60
2022/05/08 02:54:26;;;;;;;8.27;6.63;;;;;;;14.63;38.65;99906.47;5051865;28;20078;-60
2022/05/08 02:59:35;;;;;;;9.85;6.25;;;;;;;14.63;38.46;99909.09;5052109;28;20104;-59
2022/05/08 03:02:01;;;;;;;8.88;6.38;;;;;;;14.71;38.08;99911.44;5052226;28;20486;-59
2022/05/08 03:04:26;;;;;;;13.48;6.65;;;;;;;14.67;38.87;99913.28;5051647;28;20459;-59
2022/05/08 03:06:52;;;;;;;10.13;6.18;;;;;;;14.63;38.92;99916.06;5051456;28;20490;-59
2022/05/08 03:09:17;;;;;;;11.18;6.55;;;;;;;14.65;38.04;99919.47;5051742;28;20106;-59
2022/05/08 03:11:43;;;;;;;16.27;6.15;;;;;;;14.72;38.44;99920.09;5051696;28;20040;-59
2022/05/08 03:14:09;;;;;;;11.45;6.60;;;;;;;14.69;38.12;99917.63;5051982;28;20078;-59
2022/05/08 03:16:35;;;;;;;10.27;6.45;;;;;;;14.75;38.41;99914.78;5051421;28;20021;-59
2022/05/08 03:19:01;;;;;;;11.10;6.45;;;;;;;14.77;38.30;99915.59;5051423;28;20025;-60
2022/05/08 03:21:27;;;;;;;15.48;6.00;;;;;;;14.71;38.03;99905.38;5051521;28;20040;-59
2022/05/08 03:23:53;;;;;;;10.57;6.45;;;;;;;14.84;39.04;99914.47;5051604;28;20037;-60
2022/05/08 03:26:19;;;;;;;14.50;6.43;;;;;;;14.82;38.54;99908.44;5051456;28;20021;-59
2022/05/08 03:28:45;;;;;;;9.50;6.13;;;;;;;14.72;37.94;99912.28;5047674;28;20557;-59
2022/05/08 03:31:12;;;;;;;14.75;6.15;;;;;;;14.90;38.79;99909.03;5051493;28;20086;-60
2022/05/08 03:33:38;;;;;;;12.60;6.22;;;;;;;14.94;38.24;99912.41;5051766;28;20390;-59
2022/05/08 03:36:05;;;;;;;11.15;5.93;;;;;;;14.99;38.47;99905.25;5051189;28;20017;-59
2022/05/08 03:38:30;;;;;;;11.55;6.88;;;;;;;14.95;37.84;99901.91;5051421;28;20025;-60
2022/05/08 03:40:56;;;;;;;15.55;6.47;;;;;;;15.03;38.29;99914.66;5051274;28;20033;-60
2022/05/08 03:43:22;;;;;;;16.48;6.35;;;;;;;15.05;38.92;99910.25;5051615;28;20024;-59
2022/05/08 03:45:49;;;;;;;11.60;6.80;;;;;;;15.05;37.89;99905.03;5051405;28;20033;-59
2022/05/08 03:48:18;;;;;;;15.15;6.60;;;;;;;15.15;37.90;99914.22;5051488;28;20021;-59
2022/05/08 03:50:44;;;;;;;14.43;6.22;;;;;;;15.18;38.48;99915.88;5051337;28;20559;-60
2022/05/08 03:53:09;;;;;;;8.90;6.13;;;;;;;15.08;37.95;99917.97;5051407;28;20052;-60
2022/05/08 03:55:35;;;;;;;12.05;6.35;;;;;;;15.05;38.06;99902.44;5051239;28;20545;-60
2022/05/08 03:58:01;;;;;;;12.70;7.10;;;;;;;15.19;38.33;99913.19;5051367;28;20375;-60
2022/05/08 04:00:27;;;;;;;9.43;6.60;;;;;;;15.22;38.66;99908.78;5051246;28;20021;-60
2022/05/08 04:02:53;;;;;;;13.35;6.88;;;;;;;15.31;37.71;99903.22;5051870;28;20100;-59
2022/05/08 04:05:19;;;;;;;14.27;6.22;;;;;;;15.18;37.93;99903.66;5054328;28;20044;-59
2022/05/08 04:07:45;;;;;;;10.10;5.85;;;;;;;15.14;37.81;99906.47;5054431;28;20036;-60
2022/05/08 04:10:12;;;;;;;12.43;6.30;;;;;;;15.08;38.13;99902.31;5054553;28;20051;-59
2022/05/08 04:12:38;;;;;;;15.07;6.90;;;;;;;15.30;38.35;99898.91;5054792;28;20025;-59
2022/05/08 04:16:15;;;;;;;12.55;6.45;;;;;;;15.32;37.76;99904.91;5054675;28;20029;-60
2022/05/08 04:17:54;;;;;;;11.85;7.07;;;;;;;15.45;38.45;99876.56;5054339;28;20078;-59
2022/05/08 04:20:20;;;;;;;11.82;6.65;;;;;;;15.66;37.40;99891.44;5054346;28;20033;-59
2022/05/08 04:25:30;;;;;;;15.32;6.97;;;;;;;16.21;36.91;99887.53;5054023;28;20116;-60
2022/05/08 04:27:55;;;;;;;11.18;6.45;;;;;;;16.10;37.18;99893.19;5044465;28;20072;-60
2022/05/08 04:30:21;;;;;;;12.55;6.75;;;;;;;16.22;37.08;99889.25;5054067;28;20367;-60
2022/05/08 04:32:46;;;;;;;18.58;6.72;;;;;;;15.88;37.67;99901.06;5054483;28;20516;-60
2022/05/08 04:35:12;;;;;;;10.23;6.63;;;;;;;15.87;38.13;99907.19;5054222;28;20053;-60
2022/05/08 04:37:37;;;;;;;13.32;6.63;;;;;;;15.87;37.90;99891.50;5054070;28;20025;-60
2022/05/08 04:40:03;;;;;;;10.63;6.65;;;;;;;15.84;38.09;99894.25;5054110;28;20071;-60
2022/05/08 04:42:29;;;;;;;9.48;6.55;;;;;;;15.84;37.63;99884.63;5053094;28;20056;-60
2022/05/08 04:44:55;;;;;;;11.10;7.00;;;;;;;15.57;38.43;99873.50;5053969;28;20029;-60
2022/05/08 04:47:21;;;;;;;10.20;6.13;;;;;;;15.83;37.80;99882.09;5054091;28;20041;-60
2022/05/08 04:49:46;;;;;;;12.77;6.75;;;;;;;16.02;36.88;99880.44;5053741;28;20027;-60
2022/05/08 04:52:12;;;;;;;14.90;6.60;;;;;;;16.55;36.42;99889.56;5051727;28;20029;-60
2022/05/08 04:54:37;;;;;;;9.88;6.80;;;;;;;16.39;36.88;99876.31;5054205;28;20021;-60
2022/05/08 04:57:03;;;;;;;12.82;6.68;;;;;;;16.41;36.48;99886.69;5053338;28;20067;-60
2022/05/08 04:59:28;;;;;;;16.30;7.13;;;;;;;16.53;36.12;99865.25;5053871;28;20079;-60
2022/05/08 05:01:55;;;;;;;11.88;6.15;;;;;;;17.08;35.09;99872.44;5053630;28;20096;-60
2022/05/08 05:04:21;;;;;;;17.48;7.15;;;;;;;17.87;34.51;99873.16;5053852;28;20033;-61
2022/05/08 05:06:46;;;;;;;12.23;6.43;;;;;;;17.84;34.86;99862.81;5053620;28;20052;-60
2022/05/08 05:09:12;;;;;;;10.90;6.50;;;;;;;17.63;34.80;99864.69;5053360;28;20055;-60
2022/05/08 05:11:37;;;;;;;9.70;6.07;;;;;;;17.41;34.93;99868.34;5053736;28;20037;-60
2022/05/08 05:14:03;;;;;;;9.52;6.72;;;;;;;18.11;34.46;99873.75;5052978;28;20024;-59
2022/05/08 05:16:28;;;;;;;10.02;6.43;;;;;;;18.39;33.19;99869.75;5053044;28;20096;-59
2022/05/08 05:18:54;;;;;;;12.40;6.88;;;;;;;19.32;32.43;99871.00;5053549;28;20029;-60
2022/05/08 05:21:20;;;;;;;13.10;7.22;;;;;;;19.56;32.35;99857.47;5052851;28;20040;-61
2022/05/08 05:23:46;;;;;;;12.02;6.53;;;;;;;20.00;31.87;99849.69;5053463;28;20048;-60
2022/05/08 05:26:11;;;;;;;11.50;6.57;;;;;;;20.12;31.11;99863.91;5052937;28;20040;-61
2022/05/08 05:28:37;;;;;;;9.50;6.35;;;;;;;20.35;31.59;99859.06;5037590;28;20049;-60
2022/05/08 05:31:02;;;;;;;14.48;7.25;;;;;;;20.40;30.86;99862.28;5033533;28;20553;-61
2022/05/08 05:33:28;;;;;;;12.70;7.03;;;;;;;20.39;30.76;99862.38;5053341;28;20032;-61
2022/05/08 05:35:53;;;;;;;10.65;6.30;;;;;;;19.96;31.26;99850.78;5051912;28;20025;-60
2022/05/08 05:38:19;;;;;;;12.80;6.32;;;;;;;20.41;31.36;99858.72;5052420;28;20029;-60
2022/05/08 05:40:45;;;;;;;11.55;6.55;;;;;;;20.25;30.85;99852.66;5051445;28;20032;-60
2022/05/08 05:43:10;;;;;;;14.20;6.70;;;;;;;19.93;31.53;99850.97;5052852;28;20031;-60
2022/05/08 05:45:36;;;;;;;10.68;6.45;;;;;;;20.12;30.91;99858.66;5052830;28;20033;-61
2022/05/08 05:48:01;;;;;;;18.05;6.88;;;;;;;19.94;31.10;99855.31;5052546;28;20029;-60
2022/05/08 05:50:28;;;;;;;12.15;6.75;;;;;;;20.47;31.17;99858.34;5052836;28;20025;-61
2022/05/08 05:52:54;;;;;;;10.05;6.95;;;;;;;20.33;30.80;99850.44;5052664;28;20509;-60
2022/05/08 05:55:20;;;;;;;12.27;6.25;;;;;;;20.20;31.15;99846.84;5052426;28;20021;-60
2022/05/08 05:57:46;;;;;;;11.57;6.80;;;;;;;20.44;30.86;99837.47;5052336;28;20098;-60
2022/05/08 06:00:16;;;;;;;14.13;7.03;;;;;;;20.01;31.21;99829.50;5052976;28;20052;-60
2022/05/08 06:02:43;;;;;;;12.00;6.65;;;;;;;20.16;31.39;99844.38;5052499;28;20032;-59
2022/05/08 06:05:14;;;;;;;14.35;7.13;;;;;;;19.76;32.15;99835.31;5052637;28;20025;-60
2022/05/08 06:07:41;;;;;;;13.25;6.93;;;;;;;20.11;31.91;99841.19;5052229;28;20064;-61
2022/05/08 06:10:09;;;;;;;10.95;6.90;;;;;;;19.99;31.93;99799.81;5052394;28;20041;-59
2022/05/08 06:12:35;;;;;;;10.80;6.65;;;;;;;20.31;31.56;99831.28;5052443;28;20025;-61
2022/05/08 06:15:01;;;;;;;12.20;7.65;;;;;;;19.61;32.43;99837.00;5052233;28;20029;-60
2022/05/08 06:17:27;;;;;;;10.18;7.10;;;;;;;20.13;32.38;99836.66;5051790;28;20052;-60
2022/05/08 06:19:52;;;;;;;20.33;7.55;;;;;;;20.55;32.19;99833.34;5051999;28;20037;-60
2022/05/08 06:22:18;;;;;;;18.60;7.05;;;;;;;20.72;31.63;99830.56;5052147;28;20036;-60
2022/05/08 06:24:44;;;;;;;14.52;7.05;;;;;;;19.99;32.05;99824.34;5052412;28;20039;-60
2022/05/08 06:27:10;;;;;;;15.07;7.10;;;;;;;20.06;32.99;99835.34;5047647;28;20498;-59
2022/05/08 06:29:36;;;;;;;14.63;7.35;;;;;;;20.15;32.63;99826.91;5045107;28;20028;-59
2022/05/08 06:32:02;;;;;;;13.07;7.80;;;;;;;19.73;32.63;99833.69;5051743;28;20029;-59
2022/05/08 06:34:28;;;;;;;12.07;7.50;;;;;;;19.67;33.46;99832.25;5052024;28;20029;-60
2022/05/08 06:36:54;;;;;;;13.23;7.05;;;;;;;19.33;33.67;99829.84;5050409;28;20478;-60
2022/05/08 06:39:20;;;;;;;13.18;7.03;;;;;;;19.31;34.01;99827.28;5033969;28;20120;-60
2022/05/08 06:41:46;;;;;;;12.82;7.20;;;;;;;19.24;34.11;99829.41;5052130;28;20489;-60
2022/05/08 06:44:15;;;;;;;12.70;7.03;;;;;;;19.21;34.13;99828.72;5051615;28;20028;-60
2022/05/08 06:46:40;;;;;;;14.75;6.88;;;;;;;19.44;33.80;99824.84;5051371;28;20029;-60
2022/05/08 06:49:07;;;;;;;14.25;7.30;;;;;;;19.43;33.95;99826.59;5051895;28;20025;-60
2022/05/08 06:51:35;;;;;;;15.80;6.93;;;;;;;19.56;33.51;99810.16;5051860;28;20036;-60
2022/05/08 06:54:01;;;;;;;14.63;6.88;;;;;;;19.42;33.75;99817.03;5051784;28;20027;-60
2022/05/08 06:56:30;;;;;;;13.98;7.40;;;;;;;19.19;34.63;99834.06;5051356;28;20025;-60
2022/05/08 07:01:42;;;;;;;15.18;7.55;;;;;;;19.29;34.40;99821.28;5036707;28;20025;-61
2022/05/08 07:04:12;;;;;;;11.80;6.47;;;;;;;18.99;34.13;99813.31;5051582;28;20550;-60
2022/05/08 07:06:39;;;;;;;16.88;7.68;;;;;;;19.30;34.80;99822.97;5051747;28;20032;-60
2022/05/08 07:09:05;;;;;;;16.60;7.65;;;;;;;18.55;34.79;99820.81;5051670;28;20049;-60
2022/05/08 07:11:31;;;;;;;13.73;7.25;;;;;;;19.46;34.17;99813.28;5051422;28;20470;-60
2022/05/08 07:14:01;;;;;;;19.52;8.10;;;;;;;19.50;34.08;99813.97;5049964;28;20433;-59
2022/05/08 07:16:27;;;;;;;10.90;7.28;;;;;;;19.95;33.81;99811.44;5051212;28;20045;-59
2022/05/08 07:18:53;;;;;;;14.57;7.10;;;;;;;20.00;34.21;99812.03;5051323;28;20087;-59
2022/05/08 07:21:19;;;;;;;13.32;7.22;;;;;;;20.06;33.73;99802.94;5051198;28;20025;-60
2022/05/08 07:23:45;;;;;;;11.43;7.47;;;;;;;19.86;33.62;99804.13;5051422;28;20029;-59
2022/05/08 07:26:11;;;;;;;16.80;8.32;;;;;;;19.85;33.70;99803.25;5051598;28;20021;-60
2022/05/08 07:28:37;;;;;;;13.52;7.38;;;;;;;19.71;34.29;99813.69;5051302;28;20425;-60
2022/05/08 07:31:03;;;;;;;11.60;7.20;;;;;;;19.64;33.77;99790.41;5051509;28;20045;-59
2022/05/08 07:33:34;;;;;;;12.23;7.32;;;;;;;19.52;33.73;99801.59;5051258;28;20053;-59
2022/05/08 07:36:13;;;;;;;13.85;6.97;;;;;;;19.82;34.10;99798.16;5051303;28;20090;-59
2022/05/08 07:38:41;;;;;;;16.02;7.45;;;;;;;19.73;34.41;99802.16;5053404;28;20032;-59
2022/05/08 07:41:08;;;;;;;11.80;6.60;;;;;;;19.60;34.16;99794.13;5055422;28;20029;-60
2022/05/08 07:43:33;;;;;;;16.25;6.80;;;;;;;19.85;34.53;99802.41;5055306;28;20043;-60
2022/05/08 07:45:59;;;;;;;16.23;7.90;;;;;;;19.69;34.16;99798.00;5054996;28;20427;-61
2022/05/08 07:48:25;;;;;;;9.63;6.35;;;;;;;19.63;34.07;99786.06;5054733;28;20390;-59
2022/05/08 07:50:50;;;;;;;12.57;7.15;;;;;;;19.24;34.73;99786.53;5054870;28;20112;-59
2022/05/08 07:53:16;;;;;;;12.77;6.85;;;;;;;19.40;34.45;99790.00;5054652;28;20033;-60
2022/05/08 07:55:41;;;;;;;14.25;7.15;;;;;;;19.44;34.88;99791.53;5054857;28;20063;-60
2022/05/08 07:58:09;;;;;;;14.43;6.57;;;;;;;19.21;34.88;99795.47;5054493;28;20032;-61
2022/05/08 08:00:36;;;;;;;14.75;7.00;;;;;;;19.26;35.23;99784.69;5054920;28;20033;-60
2022/05/08 08:03:03;;;;;;;13.65;6.78;;;;;;;19.11;35.38;99782.00;5053502;28;20021;-60
2022/05/08 08:05:29;;;;;;;14.63;6.93;;;;;;;19.42;35.02;99776.78;5054378;28;20402;-60
2022/05/08 08:07:55;;;;;;;12.80;6.22;;;;;;;19.58;34.55;99774.13;5054533;28;20545;-60
2022/05/08 08:10:20;;;;;;;13.50;6.60;;;;;;;19.56;34.14;99774.22;5054383;28;20033;-60
2022/05/08 08:12:47;;;;;;;12.32;5.90;;;;;;;19.64;33.94;99750.97;5053682;28;20028;-60
2022/05/08 08:15:13;;;;;;;11.48;6.90;;;;;;;19.90;34.07;99763.56;5054408;28;20038;-61
2022/05/08 08:17:39;;;;;;;12.38;6.90;;;;;;;19.90;33.38;99761.78;5048818;28;20501;-61
2022/05/08 08:20:06;;;;;;;13.43;6.25;;;;;;;19.75;33.28;99758.25;5045675;28;20013;-63
2022/05/08 08:22:33;;;;;;;9.18;6.53;;;;;;;20.06;32.80;99758.25;5044025;28;20032;-61
2022/05/08 08:25:00;;;;;;;10.80;6.03;;;;;;;20.50;32.91;99752.91;5046402;28;20360;-61
2022/05/08 08:27:27;;;;;;;11.45;6.22;;;;;;;20.16;32.30;99743.59;5046656;28;20033;-61
2022/05/08 08:29:54;;;;;;;15.43;7.57;;;;;;;20.21;32.46;99752.06;5045458;28;20103;-62
2022/05/08 08:32:21;;;;;;;16.00;7.07;;;;;;;19.99;32.38;99755.13;5043568;28;20026;-62
2022/05/08 08:34:48;;;;;;;19.67;6.85;;;;;;;19.93;31.96;99755.50;5046013;28;20175;-61
2022/05/08 08:37:13;;;;;;;20.83;7.03;;;;;;;20.06;32.52;99747.72;5042330;28;20020;-60
2022/05/08 08:39:39;;;;;;;12.30;6.78;;;;;;;20.04;32.68;99750.44;5054051;28;20032;-61
2022/05/08 08:42:12;;;;;;;11.82;6.70;;;;;;;20.32;32.48;99754.03;5054012;28;20033;-61
2022/05/08 08:47:44;;;;;;;22.50;7.07;;;;;;;19.80;32.24;99745.69;5053622;28;20033;-61
2022/05/08 08:50:12;;;;;;;15.65;6.70;;;;;;;19.16;32.98;99702.97;5053770;28;20490;-60
2022/05/08 08:52:38;;;;;;;14.30;7.18;;;;;;;19.47;33.53;99730.94;5054075;28;20119;-60
2022/05/08 08:55:08;;;;;;;10.30;6.70;;;;;;;19.72;33.49;99728.66;5054227;28;20098;-61
2022/05/08 08:57:34;;;;;;;15.55;6.88;;;;;;;19.52;33.56;99738.53;5053424;28;20032;-61
2022/05/08 09:00:00;;;;;;;17.42;7.35;;;;;;;19.76;34.12;99735.44;5053366;28;20025;-61
2022/05/08 09:02:26;;;;;;;13.65;6.75;;;;;;;19.94;33.85;99728.28;5053688;28;20328;-61
2022/05/08 09:04:54;;;;;;;18.20;7.60;;;;;;;19.99;33.11;99736.72;5053512;28;20147;-62
2022/05/08 09:07:38;;;;;;;12.35;7.40;;;;;;;19.72;32.87;99728.66;5053256;28;20041;-60
2022/05/08 09:10:11;;;;;;;11.45;6.75;;;;;;;20.02;32.40;99726.00;5053779;28;20037;-60
2022/05/08 09:12:39;;;;;;;15.30;7.18;;;;;;;20.12;32.07;99721.06;5053773;28;20112;-60
2022/05/08 09:15:27;;;;;;;15.52;6.55;;;;;;;19.86;32.20;99728.72;5053289;28;20479;-60
2022/05/08 09:17:58;;;;;;;17.65;7.60;;;;;;;19.71;32.71;99680.53;5053421;28;20437;-61
2022/05/08 09:20:32;;;;;;;17.07;7.40;;;;;;;20.09;32.23;99727.34;5042797;28;20057;-61
2022/05/08 09:22:58;;;;;;;13.65;7.82;;;;;;;20.08;32.20;99723.03;5039603;28;20029;-61
2022/05/08 09:25:23;;;;;;;12.50;7.78;;;;;;;20.09;32.97;99719.44;5053184;28;20098;-62
2022/05/08 09:28:01;;;;;;;16.67;7.63;;;;;;;20.20;32.31;99715.34;5052300;28;20064;-61
2022/05/08 09:30:27;;;;;;;13.90;7.82;;;;;;;19.89;32.51;99720.66;5052953;28;20547;-62
2022/05/08 09:32:52;;;;;;;16.60;7.38;;;;;;;20.05;32.42;99710.09;5052996;28;20025;-61
2022/05/08 09:35:18;;;;;;;15.80;7.57;;;;;;;20.35;32.69;99717.88;5052728;28;20028;-60
2022/05/08 09:37:54;;;;;;;18.20;7.35;;;;;;;20.39;32.10;99710.63;5052656;28;20082;-62
2022/05/08 09:40:21;;;;;;;13.38;7.75;;;;;;;19.99;31.77;99731.47;5052778;28;20025;-60
2022/05/08 09:42:47;;;;;;;11.05;7.38;;;;;;;20.18;32.28;99716.28;5052902;28;20028;-62
2022/05/08 09:45:13;;;;;;;17.98;8.27;;;;;;;20.26;32.15;99707.06;5049094;28;20037;-62
2022/05/08 09:47:46;;;;;;;12.60;7.75;;;;;;;19.95;32.13;99708.91;5052574;28;20041;-61
2022/05/08 09:50:13;;;;;;;14.35;7.50;;;;;;;20.25;32.54;99705.38;5052458;28;20032;-63
2022/05/08 09:52:41;;;;;;;19.73;8.07;;;;;;;19.65;31.83;99641.47;5067787;28;20179;-62
2022/05/08 09:55:09;;;;;;;18.92;7.57;;;;;;;20.07;32.36;99691.59;5051199;28;20040;-62
2022/05/08 09:57:35;;;;;;;15.70;7.53;;;;;;;20.23;31.56;99712.53;5052192;28;20356;-62
2022/05/08 10:00:02;;;;;;;14.55;7.38;;;;;;;20.05;32.03;99693.44;5052397;28;20052;-62
2022/05/08 10:02:29;;;;;;;18.67;7.35;;;;;;;20.16;32.11;99685.75;5067042;28;20075;-63
2022/05/08 10:04:54;;;;;;;13.32;7.03;;;;;;;20.40;31.95;99688.63;5052373;28;20025;-61
2022/05/08 10:07:21;;;;;;;43.38;8.60;;;;;;;20.44;31.79;99684.06;5052248;28;20047;-61
2022/05/08 10:15:18;;;;;;;22.45;6.95;;;;;;;20.91;31.59;99674.06;5051903;28;20036;-61
2022/05/08 10:17:43;;;;;;;13.18;6.25;;;;;;;20.64;31.45;99659.09;5052105;28;20108;-63
2022/05/08 10:20:09;;;;;;;11.48;7.60;;;;;;;20.68;31.70;99656.19;5051700;28;20104;-63
2022/05/08 10:22:48;;;;;;;15.73;6.78;;;;;;;20.46;31.63;99656.69;5051885;28;20033;-63
2022/05/08 10:25:17;;;;;;;10.75;6.70;;;;;;;20.53;32.34;99649.25;5052336;28;20536;-63
2022/05/08 10:28:06;;;;;;;12.57;6.70;;;;;;;20.83;31.74;99632.47;5043488;28;20391;-63
2022/05/08 10:30:31;;;;;;;12.43;6.63;;;;;;;20.80;31.72;99622.97;5050589;28;20100;-62
2022/05/08 10:32:57;;;;;;;13.85;6.78;;;;;;;20.88;31.84;99634.78;5051763;28;20379;-62
2022/05/08 10:35:25;;;;;;;17.17;6.97;;;;;;;20.85;31.80;99631.44;5041473;28;20033;-61
2022/05/08 10:38:12;;;;;;;16.25;7.03;;;;;;;20.86;32.26;99643.66;5036655;28;20155;-63
2022/05/08 10:40:39;;;;;;;15.50;6.90;;;;;;;20.94;31.55;99623.88;5051775;28;20447;-62
2022/05/08 10:43:14;;;;;;;11.65;6.70;;;;;;;20.75;32.17;99630.34;5051639;28;20025;-63
2022/05/08 10:45:43;;;;;;;17.95;7.10;;;;;;;20.88;31.85;99616.34;5051706;28;20021;-62
2022/05/08 10:48:14;;;;;;;15.50;7.00;;;;;;;20.79;31.55;99566.03;5051528;28;20036;-62
2022/05/08 10:50:53;;;;;;;12.35;7.03;;;;;;;21.08;31.41;99623.81;5051817;28;20091;-63
2022/05/08 10:53:32;;;;;;;11.50;6.35;;;;;;;20.66;31.89;99559.81;5051843;28;20170;-63
2022/05/08 10:56:06;;;;;;;11.35;6.88;;;;;;;21.15;32.09;99604.00;5051778;28;20040;-61
2022/05/08 10:58:36;;;;;;;10.40;6.63;;;;;;;21.32;31.85;99596.75;5051408;28;20029;-63
2022/05/08 11:01:04;;;;;;;14.35;7.07;;;;;;;21.01;32.55;99546.16;5051679;28;20378;-61
2022/05/08 11:03:30;;;;;;;8.90;5.85;;;;;;;20.85;31.56;99605.09;5051692;28;20037;-63
2022/05/08 11:05:57;;;;;;;12.52;6.72;;;;;;;20.55;32.34;99586.00;5034222;28;20556;-62
2022/05/08 11:08:31;;;;;;;13.45;6.47;;;;;;;20.59;32.45;99585.69;5031215;28;20053;-62
2022/05/08 11:11:02;;;;;;;16.45;6.38;;;;;;;20.56;32.50;99540.34;5036814;28;20037;-61
2022/05/08 11:13:39;;;;;;;12.82;6.35;;;;;;;20.57;32.09;99542.03;5040710;28;20450;-62
2022/05/08 11:16:05;;;;;;;11.60;6.97;;;;;;;20.92;32.07;99591.53;5055708;28;20090;-62
2022/05/08 11:18:30;;;;;;;11.75;6.82;;;;;;;20.58;32.13;99585.78;5055448;28;20033;-62
2022/05/08 11:20:59;;;;;;;10.27;6.43;;;;;;;20.32;32.62;99536.56;5050614;28;20044;-62
2022/05/08 11:23:30;;;;;;;10.52;6.60;;;;;;;20.68;32.98;99577.25;5044572;28;20037;-65
2022/05/08 11:26:05;;;;;;;12.45;6.20;;;;;;;20.51;32.48;99546.72;5055253;28;20029;-63
2022/05/08 11:28:32;;;;;;;14.57;7.50;;;;;;;20.77;32.89;99585.50;5041901;28;20029;-61
2022/05/08 11:30:59;;;;;;;13.75;6.82;;;;;;;20.97;32.66;99571.00;5055254;28;20099;-61
2022/05/08 11:36:34;;;;;;;14.05;6.85;;;;;;;21.21;32.42;99579.06;5055275;28;20099;-60
2022/05/08 11:39:02;;;;;;;11.90;6.78;;;;;;;21.02;32.28;99526.75;5054842;28;20028;-61
2022/05/08 11:41:35;;;;;;;15.60;6.85;;;;;;;21.42;32.29;99571.50;5055365;28;20025;-61
2022/05/08 11:44:23;;;;;;;10.48;6.28;;;;;;;21.50;32.79;99566.50;5055182;28;20502;-61
2022/05/08 11:46:56;;;;;;;12.18;6.40;;;;;;;21.27;32.46;99562.00;5055144;28;20025;-62
2022/05/08 11:49:23;;;;;;;11.85;6.70;;;;;;;21.27;32.77;99569.91;5054623;28;20025;-62
2022/05/08 11:51:51;;;;;;;12.32;6.30;;;;;;;20.93;32.89;99549.28;5055176;28;20036;-61